West College Corner, IN (47003)

12:40 AM EDT on September 02, 2015 (GMT -0400)
wcc | | Change Station
CLOSE
Current Station
Personal Weather Station
Location: West College Corner, IN
Elevation: 984 ft
Nearby Weather Stations

Elev 984 ft 39.56 °N, 84.82 °W | Updated 10 minutes ago

Clear
Clear
67.6 °F
Feels Like 67.6 °F
N
0.0
Wind Variable Wind from West

Today
High -- | Low -- °F
--% Chance of Precip.
Yesterday
High -- | Low -- °F
Precip. -- in
7:08 AM 8:09 PM
Waning Gibbous, 83% visible
Pressure 30.10 in
Visibility 6.0 miles
Clouds Clear
Dew Point 64 °F
Humidity 88%
Rainfall 0.00 in
Snow Depth Not available.
UV 0 out of 12
Pollen 10.60 out of 12
Air Quality Not available.
Flu Activity Not available.
METAR KHAO 020353Z AUTO 00000KT 6SM BR CLR 21/19 A3012 RMK AO2 SLP193 T02060194
Pressure 30.10 in
Visibility 6.0 miles
Clouds Clear
Dew Point 64 °F
Humidity 88%
Rainfall 0.00 in
Snow Depth Not available.
UV 0 out of 12
Pollen 10.60 out of 12
Air Quality Not available.
Flu Activity Not available.
METAR KHAO 020353Z AUTO 00000KT 6SM BR CLR 21/19 A3012 RMK AO2 SLP193 T02060194

10-Day Weather Forecast

×

Almanac

Astronomy

Sep. 02, 2015 Rise Set
Actual Time
Civil Twilight
Nautical Twilight
Astronomical Twilight
Moon
Length of Visible Light
Length of Day
Tomorrow will be .
, % of the Moon is Illuminated

Today's Extremes

State Highs State Lows

Community

WunderPhotos

Upload Photos

1,851,704 photos uploaded!

WunderBlogs® & News

Nearby

Air Quality

  Air Quality AQ Index Pollutant
Not available.

Snow Depth

Station Depth Elevation

Earthquake Activity

City Distance Mag. Time & Date
Minimum magnitude displayed is 2.5.

Coastal Water Temperatures

Place Temperature

Stations

Nearby Weather Stations

Station Location Temp. Windchill Dew Point Humidity Wind Precip. Elev Updated Type